Time;durP1;ratioP1;P1;durP2;ratioP2;P2;SDS_P1;SDS_P2;PMS_P1;PMS_P2;Temp;Humidity;BMP_temperature;BMP_pressure;BME280_temperature;BME280_humidity;BME280_pressure;Samples;Min_cycle;Max_cycle;Signal;HPM_P1;HPM_P2
2022/08/09 00:00:26;;;;;;;3.53;3.03;;;;;;;19.95;48.14;99881.28;4948282;28;20782;-78
2022/08/09 00:02:52;;;;;;;5.07;3.57;;;;;;;19.95;48.11;99886.63;4947321;28;20192;-78
2022/08/09 00:05:19;;;;;;;3.00;2.53;;;;;;;19.99;48.20;99882.66;4775667;28;5002371;-78
2022/08/09 00:07:44;;;;;;;3.73;2.67;;;;;;;20.02;48.31;99889.53;4948812;28;20199;-78
2022/08/09 00:10:10;;;;;;;4.03;3.00;;;;;;;20.03;47.97;99880.53;4948692;28;20797;-77
2022/08/09 00:12:35;;;;;;;4.17;3.37;;;;;;;20.06;48.15;99877.56;4947683;28;20204;-78
2022/08/09 00:15:01;;;;;;;3.10;2.90;;;;;;;20.00;48.12;99875.50;4947710;28;20213;-78
2022/08/09 00:17:26;;;;;;;4.43;3.33;;;;;;;19.94;48.53;99878.78;4947544;28;20200;-78
2022/08/09 00:19:52;;;;;;;4.20;2.90;;;;;;;19.88;48.54;99877.56;4947503;28;20195;-78
2022/08/09 00:22:17;;;;;;;3.90;3.17;;;;;;;19.83;48.73;99877.19;4948046;28;20652;-78
2022/08/09 00:24:43;;;;;;;3.33;2.93;;;;;;;19.77;48.87;99881.28;4946915;28;20222;-78
2022/08/09 00:27:08;;;;;;;4.60;2.70;;;;;;;19.71;49.19;99879.19;4948657;28;20200;-78
2022/08/09 00:29:33;;;;;;;9.90;3.50;;;;;;;19.63;49.16;99882.59;4948442;28;20197;-78
2022/08/09 00:31:59;;;;;;;3.13;2.83;;;;;;;19.54;49.37;99883.47;4948384;28;20653;-78
2022/08/09 00:34:24;;;;;;;3.00;2.80;;;;;;;19.43;49.77;99894.34;4947499;28;20241;-78
2022/08/09 00:36:49;;;;;;;3.13;2.93;;;;;;;19.33;50.00;99890.88;4947865;28;20210;-77
2022/08/09 00:39:16;;;;;;;6.20;3.20;;;;;;;19.24;50.17;99889.94;4947858;28;20225;-78
2022/08/09 00:41:41;;;;;;;3.17;2.97;;;;;;;19.14;50.59;99891.78;4947637;28;20186;-77
2022/08/09 00:44:07;;;;;;;4.67;3.33;;;;;;;19.07;51.14;99888.03;4946592;28;20465;-78
2022/08/09 00:46:32;;;;;;;3.70;3.33;;;;;;;19.02;50.85;99881.31;4946779;28;20213;-78
2022/08/09 00:48:58;;;;;;;3.10;2.63;;;;;;;18.99;51.35;99886.09;4948182;28;20190;-78
2022/08/09 00:51:23;;;;;;;3.93;3.53;;;;;;;18.93;51.24;99881.34;4949063;28;20190;-78
2022/08/09 00:53:49;;;;;;;3.33;3.13;;;;;;;18.94;51.58;99883.88;4947947;28;20348;-78
2022/08/09 00:56:14;;;;;;;3.50;3.20;;;;;;;18.95;51.49;99884.69;4949807;28;20626;-77
2022/08/09 00:58:40;;;;;;;3.13;2.93;;;;;;;18.95;51.36;99872.22;4948270;28;20222;-78
2022/08/09 01:01:20;;;;;;;4.20;2.90;;;;;;;18.96;51.25;99887.22;4948089;28;20678;-78
2022/08/09 01:07:04;;;;;;;3.53;3.23;;;;;;;18.94;52.10;99886.53;4899808;29;20233;-78
2022/08/09 01:09:47;;;;;;;3.10;2.33;;;;;;;18.91;52.01;99880.66;4909903;29;20454;-79
2022/08/09 01:12:37;;;;;;;5.20;3.47;;;;;;;18.86;52.24;99888.25;4908275;29;20465;-76
2022/08/09 01:15:06;;;;;;;3.97;3.20;;;;;;;18.87;52.14;99879.25;4916527;29;20492;-77
2022/08/09 01:17:46;;;;;;;3.00;2.80;;;;;;;18.90;51.94;99886.94;4926358;29;20435;-76
2022/08/09 01:20:22;;;;;;;3.60;3.30;;;;;;;18.91;51.69;99881.50;4927468;29;20423;-77
2022/08/09 01:23:02;;;;;;;4.30;4.00;;;;;;;18.93;51.86;99878.69;4925978;29;20464;-77
2022/08/09 01:25:44;;;;;;;3.90;3.30;;;;;;;18.96;51.71;99881.06;4926176;29;20484;-77
2022/08/09 01:28:11;;;;;;;2.80;2.60;;;;;;;19.00;51.61;99895.75;4927384;29;20487;-77
2022/08/09 01:30:39;;;;;;;4.53;3.47;;;;;;;18.99;51.36;99886.09;4928605;29;20771;-77
2022/08/09 01:33:08;;;;;;;3.13;2.90;;;;;;;18.96;51.31;99883.75;4930056;29;20476;-78
2022/08/09 01:35:44;;;;;;;7.03;3.10;;;;;;;18.91;51.65;99888.66;4916257;29;20897;-78
2022/08/09 01:38:15;;;;;;;3.53;3.20;;;;;;;18.91;51.36;99888.66;4911387;29;20501;-78
2022/08/09 01:40:45;;;;;;;4.17;3.50;;;;;;;18.87;51.84;99888.06;4911684;29;20462;-77
2022/08/09 01:43:12;;;;;;;3.10;2.90;;;;;;;18.75;51.88;99890.06;4911319;29;20452;-78
2022/08/09 01:45:39;;;;;;;3.53;3.23;;;;;;;18.63;52.14;99893.84;4911040;29;20478;-77
2022/08/09 01:48:06;;;;;;;3.67;3.40;;;;;;;18.58;52.34;99896.94;4910960;29;21438;-77
2022/08/09 01:50:33;;;;;;;3.53;2.90;;;;;;;18.60;52.30;99898.59;4910895;29;20451;-77
2022/08/09 01:53:00;;;;;;;4.00;3.67;;;;;;;18.62;52.24;99899.31;4912058;29;20512;-77
2022/08/09 01:55:28;;;;;;;4.03;3.70;;;;;;;18.60;52.51;99901.28;4910134;29;20549;-77
2022/08/09 01:57:54;;;;;;;3.43;3.13;;;;;;;18.62;52.29;99904.63;4911058;29;20439;-77
2022/08/09 02:00:20;;;;;;;5.23;3.50;;;;;;;18.65;52.11;99905.19;4911562;29;20883;-77
2022/08/09 02:02:49;;;;;;;3.67;3.37;;;;;;;18.66;52.23;99912.19;4911421;29;20448;-77
2022/08/09 02:05:17;;;;;;;3.00;2.80;;;;;;;18.68;51.92;99912.03;4911040;29;20223;-77
2022/08/09 02:07:47;;;;;;;3.70;3.40;;;;;;;18.66;51.74;99916.66;4911173;29;20429;-78
2022/08/09 02:10:17;;;;;;;3.43;3.13;;;;;;;18.63;51.95;99917.78;4911563;29;20843;-77
2022/08/09 02:12:44;;;;;;;4.00;3.63;;;;;;;18.55;51.87;99918.50;4911305;29;20443;-77
2022/08/09 02:15:12;;;;;;;3.63;3.33;;;;;;;18.37;52.10;99925.50;4910396;29;20868;-77
2022/08/09 02:17:40;;;;;;;5.50;5.00;;;;;;;18.21;52.33;99926.06;4911084;29;20480;-77
2022/08/09 02:20:06;;;;;;;4.20;3.43;;;;;;;18.15;52.45;99926.63;4911335;29;20421;-77
2022/08/09 02:22:49;;;;;;;3.70;3.40;;;;;;;18.10;52.81;99928.84;4911385;29;20850;-78
2022/08/09 02:25:20;;;;;;;3.73;3.43;;;;;;;18.09;52.81;99932.47;4908459;29;20446;-77
2022/08/09 02:27:53;;;;;;;4.57;3.20;;;;;;;18.13;52.69;99933.88;4908817;29;20458;-77
2022/08/09 02:30:18;;;;;;;3.80;3.50;;;;;;;18.19;52.78;99927.19;4909565;29;20460;-77
2022/08/09 02:32:46;;;;;;;3.43;3.13;;;;;;;18.26;52.56;99939.78;4911480;29;20457;-77
2022/08/09 02:35:20;;;;;;;4.90;4.13;;;;;;;18.33;52.12;99924.97;4908275;29;20314;-77
2022/08/09 02:37:48;;;;;;;5.43;4.40;;;;;;;18.39;52.29;99933.34;4910097;29;20473;-77
2022/08/09 02:40:17;;;;;;;3.47;3.17;;;;;;;18.43;52.15;99932.09;4910923;29;20461;-77
2022/08/09 02:42:44;;;;;;;3.03;2.80;;;;;;;18.46;51.98;99923.81;4910832;29;20486;-77
2022/08/09 02:45:13;;;;;;;3.40;3.10;;;;;;;18.47;52.15;99938.78;4909017;29;20483;-77
2022/08/09 02:47:41;;;;;;;4.23;3.83;;;;;;;18.48;52.26;99928.03;4909430;29;20454;-77
2022/08/09 02:50:12;;;;;;;4.40;3.27;;;;;;;18.46;52.03;99931.81;4911468;29;20464;-77
2022/08/09 02:52:49;;;;;;;3.53;3.23;;;;;;;18.30;52.51;99929.69;4740267;29;5000909;-77
2022/08/09 02:55:16;;;;;;;4.57;3.53;;;;;;;18.20;52.61;99934.16;4908629;29;20217;-77
2022/08/09 02:57:44;;;;;;;6.00;4.97;;;;;;;18.08;53.04;99936.94;4909974;29;20523;-77
2022/08/09 03:00:10;;;;;;;4.20;3.90;;;;;;;18.06;52.88;99930.09;4910977;29;20455;-77
2022/08/09 03:02:38;;;;;;;3.90;3.60;;;;;;;17.98;53.33;99938.75;4910049;29;20437;-77
2022/08/09 03:05:07;;;;;;;3.70;3.40;;;;;;;17.92;53.42;99942.78;4909673;29;20252;-77
2022/08/09 03:07:35;;;;;;;5.97;3.70;;;;;;;17.80;53.94;99937.75;4910625;29;21131;-77
2022/08/09 03:10:02;;;;;;;6.87;3.17;;;;;;;17.79;53.91;99936.88;4910842;29;20463;-77
2022/08/09 03:12:29;;;;;;;4.33;3.93;;;;;;;17.78;53.90;99932.53;4910554;29;20480;-77
2022/08/09 03:14:56;;;;;;;3.20;3.00;;;;;;;17.70;54.15;99932.38;4909662;29;20459;-77
2022/08/09 03:17:23;;;;;;;3.60;3.40;;;;;;;17.69;54.12;99928.88;4910492;29;20508;-77
2022/08/09 03:19:49;;;;;;;4.10;3.60;;;;;;;17.73;54.03;99934.75;4910816;29;20488;-77
2022/08/09 03:22:17;;;;;;;4.20;2.97;;;;;;;17.77;54.04;99937.97;4910117;29;20454;-77
2022/08/09 03:24:42;;;;;;;4.17;3.87;;;;;;;17.80;53.77;99941.25;4909928;29;20501;-77
2022/08/09 03:27:09;;;;;;;3.43;3.20;;;;;;;17.85;53.67;99941.69;4910147;29;20824;-77
2022/08/09 03:29:36;;;;;;;3.63;3.30;;;;;;;17.89;53.38;99943.06;4909599;29;20193;-77
2022/08/09 03:32:03;;;;;;;4.37;3.70;;;;;;;17.96;53.43;99947.84;4909698;29;20449;-77
2022/08/09 03:34:28;;;;;;;5.67;3.33;;;;;;;17.98;53.47;99944.06;4908839;29;20436;-77
2022/08/09 03:36:55;;;;;;;4.90;3.20;;;;;;;17.98;53.27;99946.72;4906949;29;20827;-77
2022/08/09 03:39:23;;;;;;;3.50;3.20;;;;;;;17.97;53.23;99942.41;4902326;29;20205;-77
2022/08/09 03:41:50;;;;;;;4.60;3.80;;;;;;;17.99;53.33;99944.94;4903820;29;20847;-77
2022/08/09 03:44:15;;;;;;;3.40;3.20;;;;;;;17.96;53.33;99953.16;4900820;29;20451;-77
2022/08/09 03:46:40;;;;;;;3.67;3.33;;;;;;;17.90;53.50;99947.44;4905302;29;20417;-77
2022/08/09 03:49:07;;;;;;;3.10;2.90;;;;;;;17.82;53.69;99944.63;4910301;29;20192;-78
2022/08/09 03:51:34;;;;;;;3.83;3.53;;;;;;;17.75;54.00;99961.19;4909711;29;20213;-78
2022/08/09 03:53:59;;;;;;;5.60;3.60;;;;;;;17.68;54.09;99951.09;4908166;29;20500;-78
2022/08/09 03:56:25;;;;;;;4.30;3.90;;;;;;;17.65;54.03;99955.84;4909858;29;20486;-77
2022/08/09 03:58:50;;;;;;;4.20;3.73;;;;;;;17.64;54.02;99955.00;4909636;29;20224;-77
2022/08/09 04:01:17;;;;;;;4.10;3.80;;;;;;;17.65;54.02;99963.81;4910028;29;20202;-77
2022/08/09 04:03:43;;;;;;;4.20;3.70;;;;;;;17.61;54.08;99957.09;4908349;29;20187;-77
2022/08/09 04:06:09;;;;;;;3.27;3.07;;;;;;;17.62;54.14;99961.44;4909845;29;20476;-77
2022/08/09 04:08:34;;;;;;;3.77;3.47;;;;;;;17.63;53.88;99961.31;4909682;29;20443;-77
2022/08/09 04:11:00;;;;;;;4.33;3.20;;;;;;;17.62;53.94;99958.78;4909671;29;20221;-77
2022/08/09 04:13:25;;;;;;;3.40;3.10;;;;;;;17.62;54.07;99966.75;4908219;29;20569;-78
2022/08/09 04:15:50;;;;;;;3.57;3.27;;;;;;;17.62;53.52;99958.78;4909550;29;20235;-77
2022/08/09 04:18:16;;;;;;;3.63;3.33;;;;;;;17.60;54.06;99961.53;4909859;29;20233;-77
2022/08/09 04:20:41;;;;;;;3.63;3.10;;;;;;;17.61;54.13;99963.25;4909531;29;20353;-77
2022/08/09 04:23:07;;;;;;;5.63;3.50;;;;;;;17.61;54.03;99960.59;4908914;29;20870;-77
2022/08/09 04:25:33;;;;;;;4.60;3.20;;;;;;;17.62;53.80;99966.75;4908131;29;20238;-77
2022/08/09 04:27:59;;;;;;;3.90;3.40;;;;;;;17.64;53.77;99968.28;4909759;29;20282;-77
2022/08/09 04:30:24;;;;;;;3.03;2.80;;;;;;;17.67;53.63;99972.50;4909580;29;20975;-77
2022/08/09 04:32:50;;;;;;;3.63;3.13;;;;;;;17.74;53.69;99967.47;4907692;29;20434;-77
2022/08/09 04:35:16;;;;;;;3.23;2.97;;;;;;;17.77;53.39;99969.84;4909453;29;20228;-77
2022/08/09 04:37:41;;;;;;;3.80;2.80;;;;;;;17.79;53.27;99970.59;4909503;29;20257;-77
2022/08/09 04:40:08;;;;;;;3.33;3.00;;;;;;;17.83;53.23;99980.00;4909601;29;20274;-78
2022/08/09 04:42:34;;;;;;;4.10;3.53;;;;;;;17.88;53.01;99978.63;4908824;29;20304;-77
2022/08/09 04:45:00;;;;;;;3.57;3.00;;;;;;;17.93;52.65;99975.56;4908506;29;20536;-77
2022/08/09 04:47:27;;;;;;;5.23;3.40;;;;;;;17.98;52.69;99978.63;4909143;29;20421;-78
2022/08/09 04:49:54;;;;;;;3.10;2.80;;;;;;;18.03;52.41;99979.06;4909384;29;20817;-77
2022/08/09 04:52:21;;;;;;;3.13;2.83;;;;;;;18.06;52.38;99981.44;4909755;29;20462;-78
2022/08/09 04:54:47;;;;;;;2.57;2.37;;;;;;;18.11;52.20;99987.19;4908945;29;21153;-77
2022/08/09 04:57:12;;;;;;;3.50;3.20;;;;;;;18.16;51.87;99986.78;4909558;29;20444;-77
2022/08/09 04:59:38;;;;;;;4.67;2.37;;;;;;;18.24;51.70;99999.41;4909231;29;20652;-77
2022/08/09 05:02:04;;;;;;;3.70;3.30;;;;;;;18.33;51.38;99991.44;4908495;29;20189;-78
2022/08/09 05:04:29;;;;;;;4.47;3.13;;;;;;;18.41;51.26;100000.53;4909182;29;20988;-78
2022/08/09 05:06:54;;;;;;;4.10;2.60;;;;;;;18.57;51.02;99999.00;4912653;29;20216;-77
2022/08/09 05:09:20;;;;;;;3.50;3.30;;;;;;;19.00;49.90;99999.59;4912137;29;20226;-78
2022/08/09 05:11:46;;;;;;;3.10;2.77;;;;;;;19.57;48.69;99999.59;4912545;29;20199;-78
2022/08/09 05:14:11;;;;;;;3.30;3.00;;;;;;;20.22;47.00;99997.72;4905011;29;20297;-78
2022/08/09 05:16:37;;;;;;;3.10;2.80;;;;;;;20.81;45.66;99994.66;4910029;29;21200;-78
2022/08/09 05:19:03;;;;;;;3.83;2.90;;;;;;;21.37;44.46;99990.72;4912134;29;20231;-78
2022/08/09 05:21:28;;;;;;;3.27;2.90;;;;;;;21.91;43.30;99994.03;4915444;29;20221;-79
2022/08/09 05:23:58;;;;;;;5.30;2.20;;;;;;;22.39;42.17;99991.72;4913213;29;20472;-79
2022/08/09 05:26:23;;;;;;;2.80;2.60;;;;;;;22.88;41.28;99997.09;4914477;29;20284;-79
2022/08/09 05:29:00;;;;;;;3.10;2.80;;;;;;;23.29;40.03;99995.22;4913777;29;20521;-78
2022/08/09 05:31:27;;;;;;;2.73;2.47;;;;;;;23.66;39.12;99995.66;4913501;29;20214;-78
2022/08/09 05:33:52;;;;;;;2.97;2.30;;;;;;;23.95;38.95;99995.91;4912339;29;20465;-77
2022/08/09 05:36:18;;;;;;;3.83;2.20;;;;;;;24.22;38.13;99997.28;4911940;29;20225;-80
2022/08/09 05:38:43;;;;;;;3.30;3.10;;;;;;;24.57;37.43;99996.91;4909266;29;20751;-79
2022/08/09 05:41:09;;;;;;;3.50;2.70;;;;;;;24.91;36.85;99991.94;4910285;29;20593;-79
2022/08/09 05:43:34;;;;;;;2.93;2.63;;;;;;;25.25;36.17;99993.34;4912597;29;20227;-79
2022/08/09 05:46:01;;;;;;;2.50;2.30;;;;;;;25.52;35.79;99986.50;4911814;29;20258;-78
2022/08/09 05:48:27;;;;;;;3.23;2.70;;;;;;;25.76;35.03;99985.38;4913263;29;20304;-80
2022/08/09 05:50:53;;;;;;;3.60;2.60;;;;;;;25.95;34.68;99999.28;4913145;29;20547;-79
2022/08/09 05:53:18;;;;;;;4.27;2.77;;;;;;;26.11;34.46;99998.22;4913163;29;20234;-78
2022/08/09 05:55:44;;;;;;;2.57;2.37;;;;;;;26.32;34.12;99994.75;4908796;29;20942;-78
2022/08/09 05:58:13;;;;;;;2.87;2.50;;;;;;;26.49;33.52;99993.47;4906564;29;20203;-79
2022/08/09 06:00:38;;;;;;;2.23;2.10;;;;;;;26.77;33.44;99990.06;4905215;29;20817;-77
2022/08/09 06:03:04;;;;;;;4.83;2.93;;;;;;;27.04;32.58;99994.63;4904976;29;20456;-82
2022/08/09 06:05:35;;;;;;;7.90;3.40;;;;;;;27.21;32.18;100005.16;4903926;29;20278;-77
2022/08/09 06:08:04;;;;;;;4.33;3.00;;;;;;;27.29;32.02;99996.91;4904689;29;20215;-79
2022/08/09 06:10:39;;;;;;;3.60;2.70;;;;;;;27.55;31.65;99996.25;4910073;29;20542;-81
2022/08/09 06:13:09;;;;;;;4.93;3.20;;;;;;;27.68;31.48;99998.19;4905862;29;20449;-81
2022/08/09 06:15:34;;;;;;;2.63;2.43;;;;;;;27.82;30.90;99991.88;4904468;29;20566;-79
2022/08/09 06:18:01;;;;;;;3.50;2.47;;;;;;;28.02;30.62;99998.16;4909034;29;20549;-77
2022/08/09 06:20:28;;;;;;;3.60;2.70;;;;;;;28.18;30.66;100006.97;4909279;29;20207;-81
2022/08/09 06:22:57;;;;;;;3.20;2.53;;;;;;;28.40;30.41;100007.63;4908344;29;20459;-77
2022/08/09 06:25:27;;;;;;;4.20;2.90;;;;;;;28.62;30.03;100016.44;4906024;29;20475;-78
2022/08/09 06:27:55;;;;;;;4.13;2.30;;;;;;;28.86;29.61;100010.44;4908126;29;20950;-83
2022/08/09 06:30:21;;;;;;;3.60;2.93;;;;;;;29.06;29.27;100004.25;4906172;29;20530;-80
2022/08/09 06:32:47;;;;;;;4.33;2.63;;;;;;;29.35;28.48;100005.66;4904438;29;20967;-77
2022/08/09 06:35:12;;;;;;;7.30;4.13;;;;;;;29.34;28.67;100004.00;4903538;29;20481;-79
2022/08/09 06:37:38;;;;;;;6.23;2.50;;;;;;;29.29;28.90;100001.91;4904137;29;20205;-78
2022/08/09 06:40:05;;;;;;;5.10;2.50;;;;;;;29.21;28.72;100002.13;4907089;29;20224;-81
2022/08/09 06:42:34;;;;;;;5.93;2.70;;;;;;;29.25;28.50;100010.69;4906149;29;20829;-80
2022/08/09 06:44:59;;;;;;;5.00;3.53;;;;;;;29.29;28.62;100001.09;4903624;29;20555;-77
2022/08/09 06:47:25;;;;;;;4.60;2.50;;;;;;;29.24;28.51;99996.31;4907471;29;21162;-79
2022/08/09 06:49:52;;;;;;;3.37;2.20;;;;;;;29.35;28.09;100000.25;4907794;29;20216;-76
2022/08/09 06:52:17;;;;;;;4.37;2.80;;;;;;;29.66;28.13;99998.78;4905702;29;20237;-77
2022/08/09 06:54:43;;;;;;;4.20;2.87;;;;;;;29.85;27.71;99997.03;4905374;29;20513;-77
2022/08/09 06:57:10;;;;;;;2.73;2.30;;;;;;;29.90;27.71;99994.53;4907023;29;20218;-76
2022/08/09 06:59:37;;;;;;;5.60;2.63;;;;;;;29.96;27.57;99991.78;4925762;23;20248;-87
2022/08/09 07:02:02;;;;;;;3.23;2.90;;;;;;;29.90;27.95;100000.75;4914903;29;20453;-87
2022/08/09 07:04:28;;;;;;;2.93;2.70;;;;;;;29.97;27.69;99995.31;4915289;29;20259;-86
2022/08/09 07:06:56;;;;;;;3.73;3.13;;;;;;;30.18;27.49;99992.28;4917024;29;20440;-87
2022/08/09 07:09:22;;;;;;;3.53;2.60;;;;;;;30.14;27.13;99992.97;4916940;29;20208;-87
2022/08/09 07:11:49;;;;;;;4.00;2.67;;;;;;;30.15;27.30;99991.91;4917353;29;20477;-86
2022/08/09 07:14:16;;;;;;;3.47;3.00;;;;;;;30.01;27.51;99993.03;4917305;29;20293;-87
2022/08/09 07:16:43;;;;;;;2.40;2.20;;;;;;;29.93;27.49;99999.50;4916275;29;20492;-87
2022/08/09 07:19:12;;;;;;;3.87;3.10;;;;;;;30.06;27.74;99994.03;4916910;29;21465;-87
2022/08/09 07:21:39;;;;;;;3.70;3.37;;;;;;;30.18;27.31;100000.41;4917372;29;20468;-88
2022/08/09 07:24:06;;;;;;;2.53;2.23;;;;;;;30.27;27.11;99994.78;4915759;28;20515;-87
2022/08/09 07:26:32;;;;;;;7.13;3.17;;;;;;;30.35;26.92;99999.94;4916863;28;21289;-87
2022/08/09 07:28:58;;;;;;;2.97;2.30;;;;;;;30.40;26.98;99990.09;4931204;28;20462;-86
2022/08/09 07:31:24;;;;;;;5.10;2.50;;;;;;;30.42;26.65;99987.19;4916427;29;20456;-87
2022/08/09 07:33:49;;;;;;;3.13;2.93;;;;;;;30.71;26.43;99990.34;4916599;29;20301;-85
2022/08/09 07:36:15;;;;;;;2.67;2.47;;;;;;;31.03;26.20;99989.25;4915702;29;20855;-88
2022/08/09 07:38:41;;;;;;;2.67;2.47;;;;;;;31.16;25.93;99998.31;4915633;29;20217;-87
2022/08/09 07:41:06;;;;;;;2.60;2.40;;;;;;;31.05;25.83;99987.13;4916093;29;20461;-87
2022/08/09 07:43:32;;;;;;;2.87;2.30;;;;;;;31.12;26.02;99992.53;4914727;29;20203;-88
2022/08/09 07:45:57;;;;;;;3.60;2.40;;;;;;;31.29;25.77;99985.44;4917175;29;20988;-86
2022/08/09 07:48:23;;;;;;;2.63;2.43;;;;;;;31.45;25.90;99988.69;4920594;29;20208;-86
2022/08/09 07:50:51;;;;;;;5.50;2.60;;;;;;;31.67;25.02;99983.63;4920514;29;20449;-89
2022/08/09 07:53:18;;;;;;;3.50;2.50;;;;;;;31.79;25.13;99976.38;4917388;29;20294;-88
2022/08/09 07:55:50;;;;;;;3.37;2.47;;;;;;;32.00;25.04;99982.41;4930819;28;20481;-86
2022/08/09 07:58:16;;;;;;;3.87;2.60;;;;;;;32.16;24.57;99982.63;4915041;29;20457;-87
2022/08/09 08:00:44;;;;;;;3.63;2.33;;;;;;;32.14;24.54;99981.19;4916340;29;20610;-87
2022/08/09 08:03:12;;;;;;;3.22;2.53;;;;;;;31.84;24.55;99989.25;4905202;29;20857;-87
2022/08/09 08:05:38;;;;;;;2.67;2.40;;;;;;;31.69;25.07;99984.22;4915470;29;20812;-86
2022/08/09 08:08:03;;;;;;;7.60;3.60;;;;;;;31.71;24.82;99979.41;4916914;29;21247;-87
2022/08/09 08:10:30;;;;;;;3.17;2.90;;;;;;;31.75;24.82;99988.75;4914986;29;20299;-86
2022/08/09 08:12:56;;;;;;;3.10;2.80;;;;;;;31.80;25.05;99983.47;4917318;29;20258;-87
2022/08/09 08:15:21;;;;;;;4.30;3.27;;;;;;;31.83;24.63;99977.56;4915968;29;20496;-86
2022/08/09 08:17:50;;;;;;;4.33;2.63;;;;;;;31.89;24.53;99975.81;4914832;29;20325;-89
2022/08/09 08:20:17;;;;;;;3.47;3.10;;;;;;;31.89;25.15;99976.69;4916880;29;20305;-86
2022/08/09 08:22:43;;;;;;;6.33;3.07;;;;;;;31.82;24.94;99984.06;4916884;29;20870;-85
2022/08/09 08:25:35;;;;;;;3.70;2.77;;;;;;;31.64;25.30;99981.38;4934982;28;20466;-92
2022/08/09 08:28:06;;;;;;;3.40;2.80;;;;;;;31.65;25.15;99977.56;4895093;29;20218;-91
2022/08/09 08:31:22;;;;;;;4.10;3.53;;;;;;;31.57;24.84;99981.44;4919105;29;20574;-93
2022/08/09 08:33:45;;;;;;;3.20;2.90;;;;;;;31.55;25.28;99980.03;4920770;29;21058;-94
2022/08/09 08:36:21;;;;;;;3.10;2.80;;;;;;;31.40;25.40;99983.91;4920444;29;20324;-93
2022/08/09 08:38:47;;;;;;;3.80;3.53;;;;;;;31.26;25.58;99983.19;4925894;28;20476;-92
2022/08/09 08:41:38;;;;;;;4.97;3.07;;;;;;;31.16;25.43;99972.00;4928168;29;20445;-92
2022/08/09 08:44:04;;;;;;;8.77;4.43;;;;;;;30.89;25.96;99976.03;4929755;29;20465;-91
2022/08/09 08:46:39;;;;;;;3.50;3.20;;;;;;;30.77;26.10;99974.00;4923676;29;20450;-93
2022/08/09 08:49:06;;;;;;;4.77;3.43;;;;;;;30.65;26.26;99971.19;4924230;29;20902;-92
2022/08/09 08:52:09;;;;;;;3.43;2.80;;;;;;;30.55;26.73;99973.53;4926102;29;21033;-93
2022/08/09 08:54:38;;;;;;;3.70;2.97;;;;;;;30.37;27.26;99968.84;4925355;29;20458;-92
2022/08/09 08:57:11;;;;;;;3.30;3.00;;;;;;;30.31;27.35;99969.75;4925481;29;20485;-90
2022/08/09 08:59:38;;;;;;;5.73;3.43;;;;;;;30.32;27.25;99965.16;4929301;29;20495;-91
2022/08/09 09:02:18;;;;;;;3.17;2.80;;;;;;;30.28;27.15;99966.66;4937785;29;20443;-90
2022/08/09 09:05:03;;;;;;;4.70;3.33;;;;;;;30.23;27.25;99971.88;4927805;29;21817;-86
2022/08/09 09:07:32;;;;;;;3.80;3.03;;;;;;;30.28;27.28;99969.34;4923045;29;20465;-87
2022/08/09 09:10:06;;;;;;;6.80;3.10;;;;;;;30.48;27.05;99969.22;4918283;29;20486;-86
2022/08/09 09:12:32;;;;;;;3.37;3.07;;;;;;;30.68;26.82;99972.63;4918564;29;20473;-87
2022/08/09 09:14:59;;;;;;;4.77;3.17;;;;;;;30.84;26.85;99972.09;4930605;28;21003;-86
2022/08/09 09:17:27;;;;;;;3.47;3.00;;;;;;;30.97;26.33;99968.44;4918436;28;21043;-87
2022/08/09 09:19:56;;;;;;;3.77;3.47;;;;;;;31.08;26.25;99954.16;4918589;29;20478;-86
2022/08/09 09:22:22;;;;;;;6.57;3.20;;;;;;;31.17;26.26;99953.88;4917652;29;20273;-86
2022/08/09 09:24:55;;;;;;;3.20;3.00;;;;;;;31.22;26.13;99954.03;4918289;29;20473;-86
2022/08/09 09:27:34;;;;;;;;;;;;;;;;;;;;;
2022/08/09 09:30:09;;;;;;;3.03;2.63;;;;;;;31.46;25.91;99960.47;4919350;29;20452;-87
2022/08/09 09:32:35;;;;;;;4.03;3.00;;;;;;;31.59;26.03;99944.00;4917779;29;20472;-88
2022/08/09 09:35:09;;;;;;;4.93;2.93;;;;;;;31.75;25.58;99953.44;4918327;29;20271;-87
2022/08/09 09:37:35;;;;;;;4.43;2.83;;;;;;;31.91;25.41;99941.94;4919193;29;20211;-86
2022/08/09 09:40:04;;;;;;;2.70;2.50;;;;;;;31.89;24.40;99944.09;4922041;29;21249;-86
2022/08/09 09:42:32;;;;;;;2.93;2.63;;;;;;;32.08;24.12;99938.63;4917947;29;20831;-86
2022/08/09 09:45:04;;;;;;;3.47;2.73;;;;;;;32.20;24.46;99936.78;4918604;29;20458;-87
2022/08/09 09:47:30;;;;;;;4.80;2.60;;;;;;;32.38;24.43;99935.91;4917919;29;20205;-87
2022/08/09 09:50:08;;;;;;;;;;;;;;;;;;;;;
2022/08/09 09:52:48;;;;;;;2.20;1.90;;;;;;;32.74;19.42;99924.03;4908642;29;20238;-87
2022/08/09 09:55:14;;;;;;;2.50;1.80;;;;;;;32.67;18.45;99927.91;4917884;29;20477;-86
2022/08/09 09:57:39;;;;;;;2.33;2.13;;;;;;;32.50;18.69;99917.72;4917385;29;20492;-90
2022/08/09 10:00:24;;;;;;;2.47;1.80;;;;;;;32.53;18.45;99917.25;4918556;29;20481;-86
2022/08/09 10:02:52;;;;;;;2.57;2.30;;;;;;;32.53;18.90;99917.25;4917133;29;20194;-86
2022/08/09 10:05:17;;;;;;;2.13;1.93;;;;;;;32.66;18.95;99905.34;4918862;29;20464;-85
2022/08/09 10:07:43;;;;;;;3.53;1.97;;;;;;;32.66;18.61;99916.22;4918105;29;20607;-87
2022/08/09 10:10:09;;;;;;;2.10;1.90;;;;;;;32.64;18.96;99921.06;4918953;29;20536;-87
2022/08/09 10:12:39;;;;;;;3.00;2.10;;;;;;;32.59;18.67;99920.94;4916910;29;20209;-85
2022/08/09 10:15:15;;;;;;;2.10;1.97;;;;;;;32.64;18.35;99933.84;4917950;29;20579;-87
2022/08/09 10:17:54;;;;;;;1.97;1.87;;;;;;;32.60;18.92;99928.03;4917729;29;20452;-85
2022/08/09 10:20:19;;;;;;;2.00;1.90;;;;;;;32.60;18.08;99928.03;4918806;29;20551;-90
2022/08/09 10:22:47;;;;;;;2.30;2.10;;;;;;;32.55;18.36;99922.47;4917628;29;20553;-86
2022/08/09 10:25:14;;;;;;;2.73;2.10;;;;;;;32.68;18.24;99929.59;4919544;29;20268;-87
2022/08/09 10:27:47;;;;;;;2.10;1.90;;;;;;;32.70;17.95;99916.56;4917954;29;20475;-87
2022/08/09 10:30:15;;;;;;;2.10;2.00;;;;;;;32.71;18.09;99923.69;4917088;29;20473;-86
2022/08/09 10:32:44;;;;;;;2.67;2.10;;;;;;;32.63;17.89;99926.75;4922700;29;20462;-92
2022/08/09 10:35:13;;;;;;;2.37;2.17;;;;;;;32.55;18.41;99920.56;4927575;29;20480;-90
2022/08/09 10:37:56;;;;;;;1.87;1.77;;;;;;;32.56;18.26;99913.25;4921621;29;20940;-92
2022/08/09 10:40:32;;;;;;;;;;;;;;;;;;;;;
2022/08/09 10:42:58;;;;;;;2.60;1.97;;;;;;;32.82;17.97;99909.25;4918825;29;20540;-90
2022/08/09 10:45:29;;;;;;;2.30;2.10;;;;;;;33.09;18.12;99904.19;4922314;28;20473;-94
2022/08/09 10:48:20;;;;;;;2.33;2.10;;;;;;;33.28;18.09;99902.97;4920210;29;20221;-90
2022/08/09 10:51:13;;;;;;;2.87;1.97;;;;;;;33.34;17.91;99895.72;4920627;29;20454;-88
2022/08/09 10:54:12;;;;;;;3.30;2.37;;;;;;;33.43;17.94;99898.91;4919972;29;20529;-91
2022/08/09 10:57:33;;;;;;;3.57;2.00;;;;;;;33.36;17.40;99896.31;4922147;29;20482;-89
2022/08/09 10:59:59;;;;;;;2.33;1.83;;;;;;;33.36;17.84;99893.59;4949659;23;20515;-79
2022/08/09 11:02:39;;;;;;;2.23;2.03;;;;;;;33.54;17.44;99892.66;4942756;28;20912;-79
2022/08/09 11:05:16;;;;;;;4.27;2.90;;;;;;;33.71;17.41;99895.44;4944800;28;20530;-78
2022/08/09 11:07:41;;;;;;;2.30;2.00;;;;;;;33.75;17.46;99890.31;4943049;28;20464;-76
2022/08/09 11:10:07;;;;;;;1.80;1.70;;;;;;;33.62;17.87;99886.81;4943546;28;20522;-77
2022/08/09 11:12:32;;;;;;;2.27;2.07;;;;;;;33.54;17.73;99889.06;4944795;28;20534;-80
2022/08/09 11:15:19;;;;;;;2.27;2.07;;;;;;;33.47;18.06;99891.91;4943150;28;20228;-78
2022/08/09 11:17:47;;;;;;;1.83;1.73;;;;;;;33.34;18.32;99882.13;4942615;28;20201;-77
2022/08/09 11:20:14;;;;;;;2.60;2.23;;;;;;;33.14;18.62;99879.81;4942080;28;20968;-78
2022/08/09 11:22:39;;;;;;;3.03;2.07;;;;;;;33.07;18.70;99875.53;4942145;28;20552;-81
2022/08/09 11:25:05;;;;;;;2.40;2.20;;;;;;;32.89;18.62;99881.91;4943848;28;20784;-75
2022/08/09 11:27:41;;;;;;;2.30;2.03;;;;;;;32.75;18.80;99879.44;4942134;28;20704;-76
2022/08/09 11:30:11;;;;;;;2.43;1.93;;;;;;;32.82;18.70;99876.59;4942268;28;20215;-79
2022/08/09 11:32:53;;;;;;;2.10;2.00;;;;;;;32.99;18.63;99879.41;4943340;28;20474;-77
2022/08/09 11:35:28;;;;;;;1.90;1.80;;;;;;;33.08;18.40;99880.75;4943324;28;20497;-80
2022/08/09 11:37:57;;;;;;;2.00;1.80;;;;;;;33.03;18.51;99877.94;4944050;28;20466;-78
2022/08/09 11:40:22;;;;;;;2.20;2.10;;;;;;;33.09;18.58;99878.88;4944786;28;20573;-77
2022/08/09 11:42:51;;;;;;;3.27;2.30;;;;;;;33.08;18.42;99894.38;4943969;28;20468;-78
2022/08/09 11:45:28;;;;;;;6.17;2.30;;;;;;;33.14;18.55;99900.75;4944670;28;20272;-78
2022/08/09 11:48:02;;;;;;;2.83;2.20;;;;;;;33.08;18.28;99875.31;4957622;28;21195;-77